sensor_id;sensor_type;location;lat;lon;timestamp;P1;durP1;ratioP1;P2;durP2;ratioP2
8397;SDS011;4236;54.504;9.588;2023-07-24T00:01:29;29.20;;;27.07;;
8397;SDS011;4236;54.504;9.588;2023-07-24T00:03:57;28.20;;;26.50;;
8397;SDS011;4236;54.504;9.588;2023-07-24T00:06:25;28.07;;;26.27;;
8397;SDS011;4236;54.504;9.588;2023-07-24T00:08:55;28.60;;;26.80;;
8397;SDS011;4236;54.504;9.588;2023-07-24T00:11:22;28.63;;;26.63;;
8397;SDS011;4236;54.504;9.588;2023-07-24T00:13:50;28.90;;;27.20;;
8397;SDS011;4236;54.504;9.588;2023-07-24T00:16:17;31.60;;;28.87;;
8397;SDS011;4236;54.504;9.588;2023-07-24T00:18:45;28.40;;;26.70;;
8397;SDS011;4236;54.504;9.588;2023-07-24T00:21:13;29.20;;;27.10;;
8397;SDS011;4236;54.504;9.588;2023-07-24T00:23:40;28.27;;;26.47;;
8397;SDS011;4236;54.504;9.588;2023-07-24T00:26:10;28.63;;;26.63;;
8397;SDS011;4236;54.504;9.588;2023-07-24T00:28:37;27.63;;;25.90;;
8397;SDS011;4236;54.504;9.588;2023-07-24T00:31:05;28.43;;;26.43;;
8397;SDS011;4236;54.504;9.588;2023-07-24T00:33:32;28.77;;;26.80;;
8397;SDS011;4236;54.504;9.588;2023-07-24T00:36:00;27.30;;;25.70;;
8397;SDS011;4236;54.504;9.588;2023-07-24T00:38:28;27.13;;;25.47;;
8397;SDS011;4236;54.504;9.588;2023-07-24T00:40:55;27.87;;;25.90;;
8397;SDS011;4236;54.504;9.588;2023-07-24T00:43:24;25.80;;;24.20;;
8397;SDS011;4236;54.504;9.588;2023-07-24T00:45:52;26.60;;;25.10;;
8397;SDS011;4236;54.504;9.588;2023-07-24T00:48:22;28.50;;;26.70;;
8397;SDS011;4236;54.504;9.588;2023-07-24T00:50:51;26.13;;;24.63;;
8397;SDS011;4236;54.504;9.588;2023-07-24T00:53:18;26.70;;;25.20;;
8397;SDS011;4236;54.504;9.588;2023-07-24T00:55:47;28.07;;;25.97;;
8397;SDS011;4236;54.504;9.588;2023-07-24T00:58:16;27.73;;;25.83;;
8397;SDS011;4236;54.504;9.588;2023-07-24T01:00:45;26.90;;;25.20;;
8397;SDS011;4236;54.504;9.588;2023-07-24T01:03:13;27.10;;;24.83;;
8397;SDS011;4236;54.504;9.588;2023-07-24T01:05:41;27.50;;;25.90;;
8397;SDS011;4236;54.504;9.588;2023-07-24T01:08:08;26.60;;;25.00;;
8397;SDS011;4236;54.504;9.588;2023-07-24T01:10:36;25.57;;;23.87;;
8397;SDS011;4236;54.504;9.588;2023-07-24T01:13:05;26.53;;;24.83;;
8397;SDS011;4236;54.504;9.588;2023-07-24T01:15:38;25.33;;;23.93;;
8397;SDS011;4236;54.504;9.588;2023-07-24T01:18:11;25.73;;;24.13;;
8397;SDS011;4236;54.504;9.588;2023-07-24T01:20:43;26.27;;;24.70;;
8397;SDS011;4236;54.504;9.588;2023-07-24T01:23:22;24.47;;;23.07;;
8397;SDS011;4236;54.504;9.588;2023-07-24T01:26:00;26.27;;;24.57;;
8397;SDS011;4236;54.504;9.588;2023-07-24T01:28:28;25.47;;;23.50;;
8397;SDS011;4236;54.504;9.588;2023-07-24T01:30:57;24.63;;;23.23;;
8397;SDS011;4236;54.504;9.588;2023-07-24T01:33:24;25.77;;;24.27;;
8397;SDS011;4236;54.504;9.588;2023-07-24T01:35:53;24.67;;;23.17;;
8397;SDS011;4236;54.504;9.588;2023-07-24T01:38:22;25.03;;;23.37;;
8397;SDS011;4236;54.504;9.588;2023-07-24T01:40:51;25.23;;;23.23;;
8397;SDS011;4236;54.504;9.588;2023-07-24T01:43:21;24.00;;;22.50;;
8397;SDS011;4236;54.504;9.588;2023-07-24T01:45:49;24.63;;;22.80;;
8397;SDS011;4236;54.504;9.588;2023-07-24T01:48:17;24.90;;;23.13;;
8397;SDS011;4236;54.504;9.588;2023-07-24T01:50:44;24.03;;;22.53;;
8397;SDS011;4236;54.504;9.588;2023-07-24T01:53:12;24.20;;;22.67;;
8397;SDS011;4236;54.504;9.588;2023-07-24T01:55:40;24.30;;;22.60;;
8397;SDS011;4236;54.504;9.588;2023-07-24T01:58:08;23.80;;;22.20;;
8397;SDS011;4236;54.504;9.588;2023-07-24T02:00:37;24.33;;;22.87;;
8397;SDS011;4236;54.504;9.588;2023-07-24T02:03:04;24.20;;;22.60;;
8397;SDS011;4236;54.504;9.588;2023-07-24T02:05:32;26.87;;;24.00;;
8397;SDS011;4236;54.504;9.588;2023-07-24T02:08:00;25.57;;;23.70;;
8397;SDS011;4236;54.504;9.588;2023-07-24T02:10:28;27.07;;;24.47;;
8397;SDS011;4236;54.504;9.588;2023-07-24T02:12:56;25.90;;;24.17;;
8397;SDS011;4236;54.504;9.588;2023-07-24T02:15:23;24.23;;;22.80;;
8397;SDS011;4236;54.504;9.588;2023-07-24T02:17:52;25.00;;;23.40;;
8397;SDS011;4236;54.504;9.588;2023-07-24T02:20:21;25.23;;;23.00;;
8397;SDS011;4236;54.504;9.588;2023-07-24T02:22:48;24.07;;;22.67;;
8397;SDS011;4236;54.504;9.588;2023-07-24T02:25:16;25.73;;;23.87;;
8397;SDS011;4236;54.504;9.588;2023-07-24T02:27:44;25.20;;;23.60;;
8397;SDS011;4236;54.504;9.588;2023-07-24T02:30:12;25.80;;;23.90;;
8397;SDS011;4236;54.504;9.588;2023-07-24T02:32:39;24.83;;;23.10;;
8397;SDS011;4236;54.504;9.588;2023-07-24T02:35:09;26.40;;;24.10;;
8397;SDS011;4236;54.504;9.588;2023-07-24T02:37:38;24.43;;;22.73;;
8397;SDS011;4236;54.504;9.588;2023-07-24T02:40:07;25.60;;;23.57;;
8397;SDS011;4236;54.504;9.588;2023-07-24T02:42:35;26.93;;;24.83;;
8397;SDS011;4236;54.504;9.588;2023-07-24T02:45:03;25.90;;;23.70;;
8397;SDS011;4236;54.504;9.588;2023-07-24T02:47:36;26.37;;;24.23;;
8397;SDS011;4236;54.504;9.588;2023-07-24T02:50:04;26.20;;;24.00;;
8397;SDS011;4236;54.504;9.588;2023-07-24T02:52:34;25.80;;;23.93;;
8397;SDS011;4236;54.504;9.588;2023-07-24T02:55:02;27.53;;;25.23;;
8397;SDS011;4236;54.504;9.588;2023-07-24T02:57:30;27.20;;;24.70;;
8397;SDS011;4236;54.504;9.588;2023-07-24T02:59:58;27.83;;;25.60;;
8397;SDS011;4236;54.504;9.588;2023-07-24T03:02:25;28.13;;;25.00;;
8397;SDS011;4236;54.504;9.588;2023-07-24T03:04:54;25.70;;;23.63;;
8397;SDS011;4236;54.504;9.588;2023-07-24T03:07:21;27.00;;;24.80;;
8397;SDS011;4236;54.504;9.588;2023-07-24T03:09:51;21.20;;;19.37;;
8397;SDS011;4236;54.504;9.588;2023-07-24T03:12:19;21.23;;;19.10;;
8397;SDS011;4236;54.504;9.588;2023-07-24T03:14:46;21.50;;;19.60;;
8397;SDS011;4236;54.504;9.588;2023-07-24T03:17:14;21.90;;;19.80;;
8397;SDS011;4236;54.504;9.588;2023-07-24T03:19:42;21.93;;;19.80;;
8397;SDS011;4236;54.504;9.588;2023-07-24T03:22:10;22.40;;;20.40;;
8397;SDS011;4236;54.504;9.588;2023-07-24T03:24:37;23.97;;;21.63;;
8397;SDS011;4236;54.504;9.588;2023-07-24T03:27:06;22.37;;;20.30;;
8397;SDS011;4236;54.504;9.588;2023-07-24T03:29:34;23.40;;;21.27;;
8397;SDS011;4236;54.504;9.588;2023-07-24T03:32:03;22.70;;;20.73;;
8397;SDS011;4236;54.504;9.588;2023-07-24T03:34:31;23.70;;;21.93;;
8397;SDS011;4236;54.504;9.588;2023-07-24T03:36:59;24.50;;;22.00;;
8397;SDS011;4236;54.504;9.588;2023-07-24T03:39:26;23.67;;;21.43;;
8397;SDS011;4236;54.504;9.588;2023-07-24T03:41:54;25.07;;;22.37;;
8397;SDS011;4236;54.504;9.588;2023-07-24T03:44:23;23.23;;;21.30;;
8397;SDS011;4236;54.504;9.588;2023-07-24T03:46:51;23.93;;;21.63;;
8397;SDS011;4236;54.504;9.588;2023-07-24T03:49:18;23.43;;;21.53;;
8397;SDS011;4236;54.504;9.588;2023-07-24T03:51:46;23.30;;;21.17;;
8397;SDS011;4236;54.504;9.588;2023-07-24T03:54:14;23.30;;;21.30;;
8397;SDS011;4236;54.504;9.588;2023-07-24T03:56:41;23.30;;;21.20;;
8397;SDS011;4236;54.504;9.588;2023-07-24T03:59:09;23.27;;;21.00;;
8397;SDS011;4236;54.504;9.588;2023-07-24T04:01:38;22.80;;;20.50;;
8397;SDS011;4236;54.504;9.588;2023-07-24T04:04:06;23.30;;;21.40;;
8397;SDS011;4236;54.504;9.588;2023-07-24T04:06:34;22.27;;;20.57;;
8397;SDS011;4236;54.504;9.588;2023-07-24T04:09:02;22.53;;;20.30;;
8397;SDS011;4236;54.504;9.588;2023-07-24T04:11:30;24.40;;;20.33;;
8397;SDS011;4236;54.504;9.588;2023-07-24T04:13:57;23.27;;;21.17;;
8397;SDS011;4236;54.504;9.588;2023-07-24T04:16:25;28.90;;;20.50;;
8397;SDS011;4236;54.504;9.588;2023-07-24T04:18:56;21.10;;;19.43;;
8397;SDS011;4236;54.504;9.588;2023-07-24T04:21:24;20.43;;;18.60;;
8397;SDS011;4236;54.504;9.588;2023-07-24T04:23:51;20.07;;;18.33;;
8397;SDS011;4236;54.504;9.588;2023-07-24T04:26:19;18.63;;;17.30;;
8397;SDS011;4236;54.504;9.588;2023-07-24T04:28:47;19.47;;;17.77;;
8397;SDS011;4236;54.504;9.588;2023-07-24T04:31:15;19.30;;;17.60;;
8397;SDS011;4236;54.504;9.588;2023-07-24T04:33:43;18.47;;;16.60;;
8397;SDS011;4236;54.504;9.588;2023-07-24T04:36:12;17.73;;;16.40;;
8397;SDS011;4236;54.504;9.588;2023-07-24T04:38:43;17.10;;;15.93;;
8397;SDS011;4236;54.504;9.588;2023-07-24T04:41:12;15.97;;;14.73;;
8397;SDS011;4236;54.504;9.588;2023-07-24T04:43:40;16.10;;;14.83;;
8397;SDS011;4236;54.504;9.588;2023-07-24T04:46:07;16.13;;;14.50;;
8397;SDS011;4236;54.504;9.588;2023-07-24T04:48:35;15.60;;;14.30;;
8397;SDS011;4236;54.504;9.588;2023-07-24T04:51:03;16.00;;;15.13;;
8397;SDS011;4236;54.504;9.588;2023-07-24T04:53:32;15.27;;;14.30;;
8397;SDS011;4236;54.504;9.588;2023-07-24T04:56:00;14.63;;;13.83;;
8397;SDS011;4236;54.504;9.588;2023-07-24T04:58:27;15.73;;;14.23;;
8397;SDS011;4236;54.504;9.588;2023-07-24T05:00:55;15.43;;;14.40;;
8397;SDS011;4236;54.504;9.588;2023-07-24T05:03:22;16.83;;;15.33;;
8397;SDS011;4236;54.504;9.588;2023-07-24T05:05:53;15.50;;;14.27;;
8397;SDS011;4236;54.504;9.588;2023-07-24T05:08:22;22.87;;;15.97;;
8397;SDS011;4236;54.504;9.588;2023-07-24T05:10:54;15.97;;;14.70;;
8397;SDS011;4236;54.504;9.588;2023-07-24T05:13:22;15.80;;;14.77;;
8397;SDS011;4236;54.504;9.588;2023-07-24T05:15:50;16.13;;;15.13;;
8397;SDS011;4236;54.504;9.588;2023-07-24T05:18:18;15.00;;;13.77;;
8397;SDS011;4236;54.504;9.588;2023-07-24T05:20:45;15.57;;;14.17;;
8397;SDS011;4236;54.504;9.588;2023-07-24T05:23:14;15.00;;;14.10;;
8397;SDS011;4236;54.504;9.588;2023-07-24T05:25:42;15.43;;;14.53;;
8397;SDS011;4236;54.504;9.588;2023-07-24T05:28:11;15.67;;;14.17;;
8397;SDS011;4236;54.504;9.588;2023-07-24T05:30:39;14.97;;;13.60;;
8397;SDS011;4236;54.504;9.588;2023-07-24T05:33:06;15.50;;;14.37;;
8397;SDS011;4236;54.504;9.588;2023-07-24T05:35:34;15.17;;;14.17;;
8397;SDS011;4236;54.504;9.588;2023-07-24T05:38:02;15.03;;;13.93;;
8397;SDS011;4236;54.504;9.588;2023-07-24T05:40:29;14.93;;;14.03;;
8397;SDS011;4236;54.504;9.588;2023-07-24T05:42:57;14.63;;;13.73;;
8397;SDS011;4236;54.504;9.588;2023-07-24T05:45:26;15.77;;;14.57;;
8397;SDS011;4236;54.504;9.588;2023-07-24T05:47:54;15.10;;;14.30;;
8397;SDS011;4236;54.504;9.588;2023-07-24T05:50:22;15.87;;;14.47;;
8397;SDS011;4236;54.504;9.588;2023-07-24T05:52:49;14.10;;;13.27;;
8397;SDS011;4236;54.504;9.588;2023-07-24T05:55:17;13.50;;;12.97;;
8397;SDS011;4236;54.504;9.588;2023-07-24T05:57:45;14.63;;;13.63;;
8397;SDS011;4236;54.504;9.588;2023-07-24T06:00:13;14.70;;;13.70;;
8397;SDS011;4236;54.504;9.588;2023-07-24T06:02:42;15.47;;;14.17;;
8397;SDS011;4236;54.504;9.588;2023-07-24T06:05:09;14.13;;;13.27;;
8397;SDS011;4236;54.504;9.588;2023-07-24T06:07:39;14.27;;;13.40;;
8397;SDS011;4236;54.504;9.588;2023-07-24T06:10:07;14.67;;;13.43;;
8397;SDS011;4236;54.504;9.588;2023-07-24T06:12:35;15.67;;;14.60;;
8397;SDS011;4236;54.504;9.588;2023-07-24T06:15:03;14.40;;;13.70;;
8397;SDS011;4236;54.504;9.588;2023-07-24T06:17:31;15.50;;;14.50;;
8397;SDS011;4236;54.504;9.588;2023-07-24T06:20:00;15.47;;;14.50;;
8397;SDS011;4236;54.504;9.588;2023-07-24T06:22:28;14.80;;;14.10;;
8397;SDS011;4236;54.504;9.588;2023-07-24T06:24:56;15.13;;;14.30;;
8397;SDS011;4236;54.504;9.588;2023-07-24T06:27:23;15.63;;;14.40;;
8397;SDS011;4236;54.504;9.588;2023-07-24T06:29:51;14.33;;;13.40;;
8397;SDS011;4236;54.504;9.588;2023-07-24T06:32:26;15.33;;;14.17;;
8397;SDS011;4236;54.504;9.588;2023-07-24T06:34:54;15.00;;;14.20;;
8397;SDS011;4236;54.504;9.588;2023-07-24T06:37:24;14.67;;;13.90;;
8397;SDS011;4236;54.504;9.588;2023-07-24T06:39:51;15.80;;;14.77;;
8397;SDS011;4236;54.504;9.588;2023-07-24T06:42:19;14.90;;;13.80;;
8397;SDS011;4236;54.504;9.588;2023-07-24T06:44:47;14.83;;;14.00;;
8397;SDS011;4236;54.504;9.588;2023-07-24T06:47:15;14.40;;;13.70;;
8397;SDS011;4236;54.504;9.588;2023-07-24T06:49:42;14.80;;;13.93;;
8397;SDS011;4236;54.504;9.588;2023-07-24T06:52:10;14.40;;;13.50;;
8397;SDS011;4236;54.504;9.588;2023-07-24T06:54:39;15.20;;;14.00;;
8397;SDS011;4236;54.504;9.588;2023-07-24T06:57:06;14.53;;;13.80;;
8397;SDS011;4236;54.504;9.588;2023-07-24T06:59:34;16.70;;;15.17;;
8397;SDS011;4236;54.504;9.588;2023-07-24T07:02:02;14.60;;;13.87;;
8397;SDS011;4236;54.504;9.588;2023-07-24T07:04:30;15.60;;;14.13;;
8397;SDS011;4236;54.504;9.588;2023-07-24T07:06:58;15.63;;;14.80;;
8397;SDS011;4236;54.504;9.588;2023-07-24T07:09:25;14.93;;;13.97;;
8397;SDS011;4236;54.504;9.588;2023-07-24T07:11:55;14.73;;;13.70;;
8397;SDS011;4236;54.504;9.588;2023-07-24T07:14:23;13.87;;;13.07;;
8397;SDS011;4236;54.504;9.588;2023-07-24T07:16:50;14.10;;;13.13;;
8397;SDS011;4236;54.504;9.588;2023-07-24T07:19:18;15.10;;;13.67;;
8397;SDS011;4236;54.504;9.588;2023-07-24T07:21:46;15.50;;;14.73;;
8397;SDS011;4236;54.504;9.588;2023-07-24T07:24:14;15.03;;;14.17;;
8397;SDS011;4236;54.504;9.588;2023-07-24T07:26:41;13.83;;;13.33;;
8397;SDS011;4236;54.504;9.588;2023-07-24T07:29:12;14.90;;;13.27;;
8397;SDS011;4236;54.504;9.588;2023-07-24T07:31:40;14.70;;;13.83;;
8397;SDS011;4236;54.504;9.588;2023-07-24T07:34:08;15.40;;;14.00;;
8397;SDS011;4236;54.504;9.588;2023-07-24T07:36:35;14.33;;;13.73;;
8397;SDS011;4236;54.504;9.588;2023-07-24T07:39:03;15.40;;;14.30;;
8397;SDS011;4236;54.504;9.588;2023-07-24T07:41:31;15.03;;;14.23;;
8397;SDS011;4236;54.504;9.588;2023-07-24T07:43:58;15.90;;;14.80;;
8397;SDS011;4236;54.504;9.588;2023-07-24T07:46:27;17.80;;;15.17;;
8397;SDS011;4236;54.504;9.588;2023-07-24T07:48:56;14.10;;;13.43;;
8397;SDS011;4236;54.504;9.588;2023-07-24T07:51:23;14.50;;;13.63;;
8397;SDS011;4236;54.504;9.588;2023-07-24T07:53:52;14.00;;;13.20;;
8397;SDS011;4236;54.504;9.588;2023-07-24T07:56:20;14.03;;;13.40;;
8397;SDS011;4236;54.504;9.588;2023-07-24T07:58:47;13.70;;;12.97;;
8397;SDS011;4236;54.504;9.588;2023-07-24T08:01:15;14.73;;;13.63;;
8397;SDS011;4236;54.504;9.588;2023-07-24T08:03:44;13.67;;;12.77;;
8397;SDS011;4236;54.504;9.588;2023-07-24T08:06:12;13.33;;;12.63;;
8397;SDS011;4236;54.504;9.588;2023-07-24T08:08:40;14.20;;;13.20;;
8397;SDS011;4236;54.504;9.588;2023-07-24T08:11:08;14.60;;;13.77;;
8397;SDS011;4236;54.504;9.588;2023-07-24T08:13:35;13.60;;;13.00;;
8397;SDS011;4236;54.504;9.588;2023-07-24T08:16:03;13.13;;;12.60;;
8397;SDS011;4236;54.504;9.588;2023-07-24T08:18:32;13.30;;;12.77;;
8397;SDS011;4236;54.504;9.588;2023-07-24T08:21:01;12.23;;;11.73;;
8397;SDS011;4236;54.504;9.588;2023-07-24T08:23:29;13.80;;;13.30;;
8397;SDS011;4236;54.504;9.588;2023-07-24T08:25:57;12.83;;;12.00;;
8397;SDS011;4236;54.504;9.588;2023-07-24T08:28:24;12.73;;;12.13;;
8397;SDS011;4236;54.504;9.588;2023-07-24T08:30:58;12.17;;;11.67;;
8397;SDS011;4236;54.504;9.588;2023-07-24T08:33:32;12.67;;;11.97;;
8397;SDS011;4236;54.504;9.588;2023-07-24T08:36:02;13.50;;;12.77;;
8397;SDS011;4236;54.504;9.588;2023-07-24T08:38:30;13.43;;;12.70;;
8397;SDS011;4236;54.504;9.588;2023-07-24T08:41:02;12.83;;;12.03;;
8397;SDS011;4236;54.504;9.588;2023-07-24T08:43:31;13.97;;;12.73;;
8397;SDS011;4236;54.504;9.588;2023-07-24T08:46:00;13.77;;;13.07;;
8397;SDS011;4236;54.504;9.588;2023-07-24T08:48:30;13.50;;;12.80;;
8397;SDS011;4236;54.504;9.588;2023-07-24T08:51:03;13.87;;;13.20;;
8397;SDS011;4236;54.504;9.588;2023-07-24T08:53:32;13.03;;;12.17;;
8397;SDS011;4236;54.504;9.588;2023-07-24T08:56:02;12.80;;;12.10;;
8397;SDS011;4236;54.504;9.588;2023-07-24T08:58:30;14.90;;;13.90;;
8397;SDS011;4236;54.504;9.588;2023-07-24T09:00:58;13.00;;;12.30;;
8397;SDS011;4236;54.504;9.588;2023-07-24T09:03:27;13.00;;;12.10;;
8397;SDS011;4236;54.504;9.588;2023-07-24T09:05:55;13.13;;;12.43;;
8397;SDS011;4236;54.504;9.588;2023-07-24T09:08:31;12.70;;;11.90;;
8397;SDS011;4236;54.504;9.588;2023-07-24T09:11:01;13.00;;;12.40;;
8397;SDS011;4236;54.504;9.588;2023-07-24T09:13:29;13.63;;;12.50;;
8397;SDS011;4236;54.504;9.588;2023-07-24T09:15:58;12.30;;;11.50;;
8397;SDS011;4236;54.504;9.588;2023-07-24T09:18:26;12.33;;;11.70;;
8397;SDS011;4236;54.504;9.588;2023-07-24T09:20:54;12.47;;;11.70;;
8397;SDS011;4236;54.504;9.588;2023-07-24T09:23:26;13.03;;;12.43;;
8397;SDS011;4236;54.504;9.588;2023-07-24T09:25:56;12.73;;;12.03;;
8397;SDS011;4236;54.504;9.588;2023-07-24T09:28:25;12.70;;;12.20;;
8397;SDS011;4236;54.504;9.588;2023-07-24T09:30:54;13.83;;;13.23;;
8397;SDS011;4236;54.504;9.588;2023-07-24T09:33:23;14.43;;;13.53;;
8397;SDS011;4236;54.504;9.588;2023-07-24T09:36:02;13.87;;;13.07;;
8397;SDS011;4236;54.504;9.588;2023-07-24T09:38:32;14.83;;;14.13;;
8397;SDS011;4236;54.504;9.588;2023-07-24T09:41:01;13.20;;;12.60;;
8397;SDS011;4236;54.504;9.588;2023-07-24T09:43:30;11.60;;;11.10;;
8397;SDS011;4236;54.504;9.588;2023-07-24T09:46:00;11.27;;;10.70;;
8397;SDS011;4236;54.504;9.588;2023-07-24T09:48:31;11.87;;;11.33;;
8397;SDS011;4236;54.504;9.588;2023-07-24T09:51:02;12.50;;;11.90;;
8397;SDS011;4236;54.504;9.588;2023-07-24T09:53:31;12.20;;;11.60;;
8397;SDS011;4236;54.504;9.588;2023-07-24T09:56:03;11.73;;;11.03;;
8397;SDS011;4236;54.504;9.588;2023-07-24T09:58:32;12.83;;;12.17;;
8397;SDS011;4236;54.504;9.588;2023-07-24T10:01:02;12.37;;;11.77;;
8397;SDS011;4236;54.504;9.588;2023-07-24T10:03:32;10.40;;;9.90;;
8397;SDS011;4236;54.504;9.588;2023-07-24T10:06:01;11.00;;;10.60;;
8397;SDS011;4236;54.504;9.588;2023-07-24T10:08:30;9.27;;;8.77;;
8397;SDS011;4236;54.504;9.588;2023-07-24T10:10:58;9.87;;;9.47;;
8397;SDS011;4236;54.504;9.588;2023-07-24T10:13:27;10.00;;;9.40;;
8397;SDS011;4236;54.504;9.588;2023-07-24T10:15:56;8.77;;;8.20;;
8397;SDS011;4236;54.504;9.588;2023-07-24T10:18:25;10.17;;;9.53;;
8397;SDS011;4236;54.504;9.588;2023-07-24T10:21:04;10.17;;;9.57;;
8397;SDS011;4236;54.504;9.588;2023-07-24T10:23:33;9.33;;;8.93;;
8397;SDS011;4236;54.504;9.588;2023-07-24T10:26:02;8.97;;;8.40;;
8397;SDS011;4236;54.504;9.588;2023-07-24T10:28:32;8.97;;;8.47;;
8397;SDS011;4236;54.504;9.588;2023-07-24T10:31:08;9.23;;;8.57;;
8397;SDS011;4236;54.504;9.588;2023-07-24T10:33:47;8.40;;;8.00;;
8397;SDS011;4236;54.504;9.588;2023-07-24T10:36:16;8.87;;;8.37;;
8397;SDS011;4236;54.504;9.588;2023-07-24T10:38:46;9.13;;;8.63;;
8397;SDS011;4236;54.504;9.588;2023-07-24T10:41:14;8.33;;;7.83;;
8397;SDS011;4236;54.504;9.588;2023-07-24T10:43:44;8.00;;;7.40;;
8397;SDS011;4236;54.504;9.588;2023-07-24T10:46:14;7.70;;;7.20;;
8397;SDS011;4236;54.504;9.588;2023-07-24T10:48:44;7.93;;;7.23;;
8397;SDS011;4236;54.504;9.588;2023-07-24T10:51:12;8.23;;;7.37;;
8397;SDS011;4236;54.504;9.588;2023-07-24T10:53:42;7.20;;;6.70;;
8397;SDS011;4236;54.504;9.588;2023-07-24T10:56:11;7.00;;;6.60;;
8397;SDS011;4236;54.504;9.588;2023-07-24T10:58:39;7.13;;;6.83;;
8397;SDS011;4236;54.504;9.588;2023-07-24T11:01:08;7.90;;;7.50;;
8397;SDS011;4236;54.504;9.588;2023-07-24T11:03:37;7.73;;;7.23;;
8397;SDS011;4236;54.504;9.588;2023-07-24T11:06:11;7.13;;;6.83;;
8397;SDS011;4236;54.504;9.588;2023-07-24T11:08:40;8.30;;;7.27;;
8397;SDS011;4236;54.504;9.588;2023-07-24T11:11:08;7.30;;;6.90;;
8397;SDS011;4236;54.504;9.588;2023-07-24T11:13:35;7.80;;;7.30;;
8397;SDS011;4236;54.504;9.588;2023-07-24T11:16:06;7.80;;;7.20;;
8397;SDS011;4236;54.504;9.588;2023-07-24T11:18:45;7.37;;;6.90;;
8397;SDS011;4236;54.504;9.588;2023-07-24T11:21:20;7.20;;;6.73;;
8397;SDS011;4236;54.504;9.588;2023-07-24T11:23:50;7.90;;;7.30;;
8397;SDS011;4236;54.504;9.588;2023-07-24T11:26:19;7.03;;;6.73;;
8397;SDS011;4236;54.504;9.588;2023-07-24T11:28:48;7.63;;;7.23;;
8397;SDS011;4236;54.504;9.588;2023-07-24T11:31:16;7.20;;;6.70;;
8397;SDS011;4236;54.504;9.588;2023-07-24T11:33:47;8.23;;;7.63;;
8397;SDS011;4236;54.504;9.588;2023-07-24T11:36:16;7.57;;;7.13;;
8397;SDS011;4236;54.504;9.588;2023-07-24T11:38:44;8.17;;;7.53;;
8397;SDS011;4236;54.504;9.588;2023-07-24T11:41:13;7.17;;;6.87;;
8397;SDS011;4236;54.504;9.588;2023-07-24T11:43:45;7.23;;;6.73;;
8397;SDS011;4236;54.504;9.588;2023-07-24T11:46:21;6.30;;;6.00;;
8397;SDS011;4236;54.504;9.588;2023-07-24T11:48:52;7.70;;;7.10;;
8397;SDS011;4236;54.504;9.588;2023-07-24T11:51:23;7.60;;;6.83;;
8397;SDS011;4236;54.504;9.588;2023-07-24T11:54:03;10.93;;;8.60;;
8397;SDS011;4236;54.504;9.588;2023-07-24T11:56:33;8.63;;;7.70;;
8397;SDS011;4236;54.504;9.588;2023-07-24T11:59:08;7.40;;;7.00;;
8397;SDS011;4236;54.504;9.588;2023-07-24T12:01:36;8.93;;;8.40;;
8397;SDS011;4236;54.504;9.588;2023-07-24T12:04:06;6.80;;;6.50;;
8397;SDS011;4236;54.504;9.588;2023-07-24T12:06:34;8.53;;;7.97;;
8397;SDS011;4236;54.504;9.588;2023-07-24T12:09:02;8.70;;;8.10;;
8397;SDS011;4236;54.504;9.588;2023-07-24T12:11:31;7.20;;;6.90;;
8397;SDS011;4236;54.504;9.588;2023-07-24T12:13:59;7.50;;;7.07;;
8397;SDS011;4236;54.504;9.588;2023-07-24T12:16:27;7.93;;;7.43;;
8397;SDS011;4236;54.504;9.588;2023-07-24T12:18:55;7.13;;;6.73;;
8397;SDS011;4236;54.504;9.588;2023-07-24T12:21:24;7.80;;;7.20;;
8397;SDS011;4236;54.504;9.588;2023-07-24T12:23:52;7.90;;;7.30;;
8397;SDS011;4236;54.504;9.588;2023-07-24T12:26:20;7.83;;;7.30;;
8397;SDS011;4236;54.504;9.588;2023-07-24T12:28:48;7.30;;;6.90;;
8397;SDS011;4236;54.504;9.588;2023-07-24T12:31:16;7.60;;;7.00;;
8397;SDS011;4236;54.504;9.588;2023-07-24T12:33:45;7.57;;;7.10;;
8397;SDS011;4236;54.504;9.588;2023-07-24T12:36:12;7.23;;;6.83;;
8397;SDS011;4236;54.504;9.588;2023-07-24T12:38:41;6.37;;;6.07;;
8397;SDS011;4236;54.504;9.588;2023-07-24T12:41:09;7.37;;;6.87;;
8397;SDS011;4236;54.504;9.588;2023-07-24T12:43:37;6.23;;;5.93;;
8397;SDS011;4236;54.504;9.588;2023-07-24T12:46:05;7.00;;;6.60;;
8397;SDS011;4236;54.504;9.588;2023-07-24T12:48:32;6.53;;;6.03;;
8397;SDS011;4236;54.504;9.588;2023-07-24T12:51:02;10.17;;;6.50;;
8397;SDS011;4236;54.504;9.588;2023-07-24T12:53:30;6.83;;;6.43;;
8397;SDS011;4236;54.504;9.588;2023-07-24T12:56:15;7.27;;;6.60;;
8397;SDS011;4236;54.504;9.588;2023-07-24T12:58:43;7.00;;;6.47;;
8397;SDS011;4236;54.504;9.588;2023-07-24T13:01:11;6.53;;;6.13;;
8397;SDS011;4236;54.504;9.588;2023-07-24T13:03:39;7.40;;;6.80;;
8397;SDS011;4236;54.504;9.588;2023-07-24T13:06:07;6.80;;;6.40;;
8397;SDS011;4236;54.504;9.588;2023-07-24T13:08:35;6.57;;;6.10;;
8397;SDS011;4236;54.504;9.588;2023-07-24T13:11:02;5.83;;;5.53;;
8397;SDS011;4236;54.504;9.588;2023-07-24T13:13:32;6.60;;;6.17;;
8397;SDS011;4236;54.504;9.588;2023-07-24T13:15:59;6.30;;;5.80;;
8397;SDS011;4236;54.504;9.588;2023-07-24T13:18:27;6.30;;;5.80;;
8397;SDS011;4236;54.504;9.588;2023-07-24T13:20:55;5.50;;;5.20;;
8397;SDS011;4236;54.504;9.588;2023-07-24T13:23:23;6.73;;;6.20;;
8397;SDS011;4236;54.504;9.588;2023-07-24T13:25:51;5.60;;;5.30;;
8397;SDS011;4236;54.504;9.588;2023-07-24T13:28:19;5.60;;;5.10;;
8397;SDS011;4236;54.504;9.588;2023-07-24T13:30:51;5.47;;;5.20;;
8397;SDS011;4236;54.504;9.588;2023-07-24T13:33:18;5.20;;;4.90;;
8397;SDS011;4236;54.504;9.588;2023-07-24T13:35:48;5.80;;;5.20;;
8397;SDS011;4236;54.504;9.588;2023-07-24T13:38:16;4.77;;;4.33;;
8397;SDS011;4236;54.504;9.588;2023-07-24T13:40:47;5.47;;;5.00;;
8397;SDS011;4236;54.504;9.588;2023-07-24T13:43:15;4.57;;;4.37;;
8397;SDS011;4236;54.504;9.588;2023-07-24T13:45:43;4.70;;;4.50;;
8397;SDS011;4236;54.504;9.588;2023-07-24T13:48:12;5.20;;;4.90;;
8397;SDS011;4236;54.504;9.588;2023-07-24T13:50:40;4.50;;;4.20;;
8397;SDS011;4236;54.504;9.588;2023-07-24T13:53:08;5.33;;;4.87;;
8397;SDS011;4236;54.504;9.588;2023-07-24T13:55:35;5.17;;;4.77;;
8397;SDS011;4236;54.504;9.588;2023-07-24T13:58:03;5.23;;;4.73;;
8397;SDS011;4236;54.504;9.588;2023-07-24T14:00:31;5.53;;;5.00;;
8397;SDS011;4236;54.504;9.588;2023-07-24T14:02:59;5.50;;;5.20;;
8397;SDS011;4236;54.504;9.588;2023-07-24T14:05:28;5.10;;;4.37;;
8397;SDS011;4236;54.504;9.588;2023-07-24T14:07:56;6.50;;;5.90;;
8397;SDS011;4236;54.504;9.588;2023-07-24T14:10:23;5.70;;;4.63;;
8397;SDS011;4236;54.504;9.588;2023-07-24T14:12:51;5.23;;;4.73;;
8397;SDS011;4236;54.504;9.588;2023-07-24T14:15:19;5.27;;;4.87;;
8397;SDS011;4236;54.504;9.588;2023-07-24T14:17:47;6.87;;;5.57;;
8397;SDS011;4236;54.504;9.588;2023-07-24T14:20:15;6.37;;;5.23;;
8397;SDS011;4236;54.504;9.588;2023-07-24T14:22:44;6.63;;;5.40;;
8397;SDS011;4236;54.504;9.588;2023-07-24T14:25:12;5.93;;;5.43;;
8397;SDS011;4236;54.504;9.588;2023-07-24T14:27:40;7.63;;;5.47;;
8397;SDS011;4236;54.504;9.588;2023-07-24T14:30:08;4.80;;;4.50;;
8397;SDS011;4236;54.504;9.588;2023-07-24T14:32:36;4.87;;;4.47;;
8397;SDS011;4236;54.504;9.588;2023-07-24T14:35:04;4.90;;;4.20;;
8397;SDS011;4236;54.504;9.588;2023-07-24T14:37:33;5.00;;;4.60;;
8397;SDS011;4236;54.504;9.588;2023-07-24T14:40:02;5.63;;;5.10;;
8397;SDS011;4236;54.504;9.588;2023-07-24T14:42:30;6.80;;;5.10;;
8397;SDS011;4236;54.504;9.588;2023-07-24T14:44:57;4.93;;;4.53;;
8397;SDS011;4236;54.504;9.588;2023-07-24T14:47:29;6.60;;;4.87;;
8397;SDS011;4236;54.504;9.588;2023-07-24T14:49:58;5.57;;;5.17;;
8397;SDS011;4236;54.504;9.588;2023-07-24T14:52:26;6.83;;;5.77;;
8397;SDS011;4236;54.504;9.588;2023-07-24T14:54:53;7.00;;;5.37;;
8397;SDS011;4236;54.504;9.588;2023-07-24T14:57:23;5.13;;;4.63;;
8397;SDS011;4236;54.504;9.588;2023-07-24T14:59:52;5.73;;;5.23;;
8397;SDS011;4236;54.504;9.588;2023-07-24T15:02:20;6.77;;;5.50;;
8397;SDS011;4236;54.504;9.588;2023-07-24T15:04:48;5.57;;;5.03;;